Time,TemperatureF,DewpointF,PressureIn,WindDirection,WindDirectionDegrees,WindSpeedMPH,WindSpeedGustMPH,Humidity,HourlyPrecipIn,Conditions,Clouds,dailyrainin,SolarRadiationWatts/m^2,SoftwareType,DateUTC
2013-02-17 00:01:00,50.0,11.0,-100.00,NE,49,1.0,4.0,20,0.00,,,-99.99,0.000000,,2013-02-17 08:01:00,
2013-02-17 00:11:00,50.0,11.0,-100.00,NE,49,1.0,4.0,20,0.00,,,-99.99,0.000000,,2013-02-17 08:11:00,
2013-02-17 00:42:00,49.0,9.0,-100.00,ENE,59,0.0,4.0,19,0.00,,,0.00,0.000000,,2013-02-17 08:42:00,
2013-02-17 00:52:00,49.0,9.0,-100.00,ENE,59,0.0,4.0,19,0.00,,,0.00,0.000000,,2013-02-17 08:52:00,
2013-02-17 01:01:00,49.0,9.0,-100.00,ENE,59,0.0,4.0,19,0.00,,,0.00,0.000000,,2013-02-17 09:01:00,
2013-02-17 01:11:00,49.0,9.0,-100.00,ENE,59,0.0,4.0,19,0.00,,,0.00,0.000000,,2013-02-17 09:11:00,
2013-02-17 01:42:00,49.0,6.0,-100.00,NE,34,0.0,5.0,17,0.00,,,0.00,0.000000,,2013-02-17 09:42:00,
2013-02-17 01:52:00,49.0,6.0,-100.00,NE,34,0.0,5.0,17,0.00,,,0.00,0.000000,,2013-02-17 09:52:00,
2013-02-17 02:01:00,49.0,6.0,-100.00,NE,34,0.0,5.0,17,0.00,,,0.00,0.000000,,2013-02-17 10:01:00,
2013-02-17 02:11:00,49.0,6.0,-100.00,NE,34,0.0,5.0,17,0.00,,,0.00,0.000000,,2013-02-17 10:11:00,
2013-02-17 02:42:00,49.0,10.0,-100.00,East,96,0.0,3.0,20,0.00,,,0.00,0.000000,,2013-02-17 10:42:00,
2013-02-17 02:52:00,49.0,10.0,-100.00,East,96,0.0,3.0,20,0.00,,,0.00,0.000000,,2013-02-17 10:52:00,
2013-02-17 03:01:00,49.0,10.0,-100.00,East,96,0.0,3.0,20,0.00,,,0.00,0.000000,,2013-02-17 11:01:00,
2013-02-17 03:11:00,49.0,10.0,-100.00,East,96,0.0,3.0,20,0.00,,,0.00,0.000000,,2013-02-17 11:11:00,
2013-02-17 03:42:00,48.0,7.0,-100.00,WNW,290,0.0,0.0,18,0.00,,,0.00,0.000000,,2013-02-17 11:42:00,
2013-02-17 03:52:00,48.0,7.0,-100.00,WNW,290,0.0,0.0,18,0.00,,,0.00,0.000000,,2013-02-17 11:52:00,
2013-02-17 04:02:00,48.0,7.0,-100.00,WNW,290,0.0,0.0,18,0.00,,,0.00,0.000000,,2013-02-17 12:02:00,
2013-02-17 04:11:00,48.0,7.0,-100.00,WNW,290,0.0,0.0,18,0.00,,,0.00,0.000000,,2013-02-17 12:11:00,
2013-02-17 04:32:00,48.0,9.0,-100.00,West,267,0.0,0.0,20,0.00,,,0.00,0.000000,,2013-02-17 12:32:00,
2013-02-17 04:42:00,48.0,9.0,-100.00,West,267,0.0,0.0,20,0.00,,,0.00,0.000000,,2013-02-17 12:42:00,
2013-02-17 04:52:00,48.0,9.0,-100.00,West,267,0.0,0.0,20,0.00,,,0.00,0.000000,,2013-02-17 12:52:00,
2013-02-17 05:02:00,48.0,9.0,-100.00,West,267,0.0,0.0,20,0.00,,,0.00,0.000000,,2013-02-17 13:02:00,
2013-02-17 05:11:00,48.0,9.0,-100.00,West,267,0.0,0.0,20,0.00,,,0.00,0.000000,,2013-02-17 13:11:00,
2013-02-17 06:42:00,45.0,13.0,-100.00,SSW,206,0.0,4.0,27,-99.99,,,0.00,0.000000,,2013-02-17 14:42:00,
2013-02-17 06:53:00,45.0,13.0,-100.00,SSW,206,0.0,4.0,27,-99.99,,,0.00,0.000000,,2013-02-17 14:53:00,
2013-02-17 07:01:00,45.0,13.0,-100.00,SSW,206,0.0,4.0,27,-99.99,,,0.00,0.000000,,2013-02-17 15:01:00,
2013-02-17 07:11:00,45.0,13.0,-100.00,SSW,206,0.0,4.0,27,-99.99,,,0.00,0.000000,,2013-02-17 15:11:00,
2013-02-17 07:42:00,47.0,15.0,-100.00,ESE,120,0.0,5.0,27,0.00,,,0.00,18.000000,,2013-02-17 15:42:00,
2013-02-17 07:52:00,47.0,15.0,-100.00,ESE,120,0.0,5.0,27,0.00,,,0.00,18.000000,,2013-02-17 15:52:00,
2013-02-17 08:01:00,47.0,15.0,-100.00,ESE,120,0.0,5.0,27,0.00,,,0.00,18.000000,,2013-02-17 16:01:00,
2013-02-17 08:11:00,47.0,15.0,-100.00,ESE,120,0.0,5.0,27,0.00,,,0.00,18.000000,,2013-02-17 16:11:00,
2013-02-17 08:32:00,57.0,13.0,-100.00,South,170,0.0,3.0,17,0.00,,,0.00,277.000000,,2013-02-17 16:32:00,
2013-02-17 08:42:00,57.0,13.0,-100.00,South,170,0.0,3.0,17,0.00,,,0.00,277.000000,,2013-02-17 16:42:00,
2013-02-17 08:52:00,57.0,13.0,-100.00,South,170,0.0,3.0,17,0.00,,,0.00,277.000000,,2013-02-17 16:52:00,
2013-02-17 09:02:00,57.0,13.0,-100.00,South,170,0.0,3.0,17,0.00,,,0.00,277.000000,,2013-02-17 17:02:00,
2013-02-17 09:11:00,57.0,13.0,-100.00,South,170,0.0,3.0,17,0.00,,,0.00,277.000000,,2013-02-17 17:11:00,
2013-02-17 09:32:00,60.0,11.0,-100.00,WSW,250,4.0,9.0,14,0.00,,,0.00,542.000000,,2013-02-17 17:32:00,
2013-02-17 09:42:00,60.0,11.0,-100.00,WSW,250,4.0,9.0,14,0.00,,,0.00,542.000000,,2013-02-17 17:42:00,
2013-02-17 09:52:00,60.0,11.0,-100.00,WSW,250,4.0,9.0,14,0.00,,,0.00,542.000000,,2013-02-17 17:52:00,
2013-02-17 10:01:00,60.0,11.0,-100.00,WSW,250,4.0,9.0,14,0.00,,,0.00,542.000000,,2013-02-17 18:01:00,
2013-02-17 10:11:00,60.0,11.0,-100.00,WSW,250,4.0,9.0,14,0.00,,,0.00,542.000000,,2013-02-17 18:11:00,
2013-02-17 10:42:00,60.0,11.0,-100.00,SW,236,5.0,11.0,14,0.00,,,0.00,761.000000,,2013-02-17 18:42:00,
2013-02-17 10:52:00,60.0,11.0,-100.00,SW,236,5.0,11.0,14,0.00,,,0.00,761.000000,,2013-02-17 18:52:00,
2013-02-17 11:01:00,60.0,11.0,-100.00,SW,236,5.0,11.0,14,0.00,,,0.00,761.000000,,2013-02-17 19:01:00,
2013-02-17 11:11:00,60.0,11.0,-100.00,SW,236,5.0,11.0,14,0.00,,,0.00,761.000000,,2013-02-17 19:11:00,
2013-02-17 11:42:00,61.0,11.0,-100.00,SW,234,7.0,13.0,14,0.00,,,0.00,911.000000,,2013-02-17 19:42:00,
2013-02-17 11:52:00,61.0,11.0,-100.00,SW,234,7.0,13.0,14,0.00,,,0.00,911.000000,,2013-02-17 19:52:00,
2013-02-17 12:01:00,61.0,11.0,-100.00,SW,234,7.0,13.0,14,0.00,,,0.00,911.000000,,2013-02-17 20:01:00,
2013-02-17 12:11:00,61.0,11.0,-100.00,SW,234,7.0,13.0,14,0.00,,,0.00,911.000000,,2013-02-17 20:11:00,
2013-02-17 12:42:00,59.0,13.0,-100.00,SW,230,8.0,18.0,16,0.00,,,0.00,982.000000,,2013-02-17 20:42:00,
2013-02-17 12:52:00,59.0,13.0,-100.00,SW,230,8.0,18.0,16,0.00,,,0.00,982.000000,,2013-02-17 20:52:00,
2013-02-17 13:01:00,59.0,13.0,-100.00,SW,230,8.0,18.0,16,0.00,,,0.00,982.000000,,2013-02-17 21:01:00,
2013-02-17 13:11:00,59.0,13.0,-100.00,SW,230,8.0,18.0,16,0.00,,,0.00,982.000000,,2013-02-17 21:11:00,
2013-02-17 13:42:00,60.0,15.0,-100.00,WSW,241,7.0,22.0,17,0.00,,,0.00,966.000000,,2013-02-17 21:42:00,
2013-02-17 13:53:00,60.0,15.0,-100.00,WSW,241,7.0,22.0,17,0.00,,,0.00,966.000000,,2013-02-17 21:53:00,
2013-02-17 14:01:00,60.0,15.0,-100.00,WSW,241,7.0,22.0,17,0.00,,,0.00,966.000000,,2013-02-17 22:01:00,
2013-02-17 14:11:00,60.0,15.0,-100.00,WSW,241,7.0,22.0,17,0.00,,,0.00,966.000000,,2013-02-17 22:11:00,
2013-02-17 14:32:00,60.0,20.0,-100.00,South,189,12.0,18.0,21,0.00,,,0.00,864.000000,,2013-02-17 22:32:00,
2013-02-17 14:42:00,60.0,20.0,-100.00,South,189,12.0,18.0,21,0.00,,,0.00,864.000000,,2013-02-17 22:42:00,
2013-02-17 14:52:00,60.0,20.0,-100.00,South,189,12.0,18.0,21,0.00,,,0.00,864.000000,,2013-02-17 22:52:00,
2013-02-17 15:01:00,60.0,20.0,-100.00,South,189,12.0,18.0,21,0.00,,,0.00,864.000000,,2013-02-17 23:01:00,
2013-02-17 15:11:00,60.0,20.0,-100.00,South,189,12.0,18.0,21,0.00,,,0.00,864.000000,,2013-02-17 23:11:00,
2013-02-17 15:42:00,60.0,21.0,-100.00,WSW,253,8.0,18.0,22,0.00,,,0.00,683.000000,,2013-02-17 23:42:00,
2013-02-17 15:52:00,60.0,21.0,-100.00,WSW,253,8.0,18.0,22,0.00,,,0.00,683.000000,,2013-02-17 23:52:00,
2013-02-17 16:01:00,60.0,21.0,-100.00,WSW,253,8.0,18.0,22,0.00,,,0.00,683.000000,,2013-02-18 00:01:00,
2013-02-17 16:11:00,60.0,21.0,-100.00,WSW,253,8.0,18.0,22,0.00,,,0.00,683.000000,,2013-02-18 00:11:00,
2013-02-17 16:42:00,58.0,29.0,-100.00,SSW,210,6.0,15.0,33,0.00,,,0.00,441.000000,,2013-02-18 00:42:00,
2013-02-17 16:52:00,58.0,29.0,-100.00,SSW,210,6.0,15.0,33,0.00,,,0.00,441.000000,,2013-02-18 00:52:00,
2013-02-17 17:01:00,58.0,29.0,-100.00,SSW,210,6.0,15.0,33,0.00,,,0.00,441.000000,,2013-02-18 01:01:00,
2013-02-17 17:11:00,58.0,29.0,-100.00,SSW,210,6.0,15.0,33,0.00,,,0.00,441.000000,,2013-02-18 01:11:00,
2013-02-17 18:42:00,44.0,32.0,-100.00,SSE,159,0.0,9.0,62,-99.99,,,0.00,6.000000,,2013-02-18 02:42:00,
2013-02-17 18:52:00,44.0,32.0,-100.00,SSE,159,0.0,9.0,62,-99.99,,,0.00,6.000000,,2013-02-18 02:52:00,
2013-02-17 19:01:00,44.0,32.0,-100.00,SSE,159,0.0,9.0,62,-99.99,,,0.00,6.000000,,2013-02-18 03:01:00,
2013-02-17 19:11:00,44.0,32.0,-100.00,SSE,159,0.0,9.0,62,-99.99,,,0.00,6.000000,,2013-02-18 03:11:00,
2013-02-17 19:32:00,44.0,37.0,-100.00,WSW,238,0.0,4.0,75,0.00,,,0.00,0.000000,,2013-02-18 03:32:00,
2013-02-17 19:42:00,44.0,37.0,-100.00,WSW,238,0.0,4.0,75,0.00,,,0.00,0.000000,,2013-02-18 03:42:00,
2013-02-17 19:52:00,44.0,37.0,-100.00,WSW,238,0.0,4.0,75,0.00,,,0.00,0.000000,,2013-02-18 03:52:00,
2013-02-17 20:01:00,44.0,37.0,-100.00,WSW,238,0.0,4.0,75,0.00,,,0.00,0.000000,,2013-02-18 04:01:00,
2013-02-17 20:11:00,44.0,37.0,-100.00,WSW,238,0.0,4.0,75,0.00,,,0.00,0.000000,,2013-02-18 04:11:00,
2013-02-17 20:42:00,42.0,34.0,-100.00,WNW,293,0.0,3.0,73,0.00,,,0.00,0.000000,,2013-02-18 04:42:00,
2013-02-17 20:52:00,42.0,34.0,-100.00,WNW,293,0.0,3.0,73,0.00,,,0.00,0.000000,,2013-02-18 04:52:00,
2013-02-17 21:01:00,42.0,34.0,-100.00,WNW,293,0.0,3.0,73,0.00,,,0.00,0.000000,,2013-02-18 05:01:00,
2013-02-17 21:11:00,42.0,34.0,-100.00,WNW,293,0.0,3.0,73,0.00,,,0.00,0.000000,,2013-02-18 05:11:00,
2013-02-17 21:32:00,42.0,31.0,-100.00,SSW,193,0.0,4.0,65,0.00,,,0.00,0.000000,,2013-02-18 05:32:00,
2013-02-17 21:42:00,42.0,31.0,-100.00,SSW,193,0.0,4.0,65,0.00,,,0.00,0.000000,,2013-02-18 05:42:00,
2013-02-17 21:52:00,42.0,31.0,-100.00,SSW,193,0.0,4.0,65,0.00,,,0.00,0.000000,,2013-02-18 05:52:00,
2013-02-17 22:02:00,42.0,31.0,-100.00,SSW,193,0.0,4.0,65,0.00,,,0.00,0.000000,,2013-02-18 06:02:00,
2013-02-17 22:11:00,42.0,31.0,-100.00,SSW,193,0.0,4.0,65,0.00,,,0.00,0.000000,,2013-02-18 06:11:00,
2013-02-17 22:42:00,43.0,33.0,-100.00,WSW,237,0.0,3.0,68,0.00,,,0.00,0.000000,,2013-02-18 06:42:00,
2013-02-17 22:52:00,43.0,33.0,-100.00,WSW,237,0.0,3.0,68,0.00,,,0.00,0.000000,,2013-02-18 06:52:00,
2013-02-17 23:01:00,43.0,33.0,-100.00,WSW,237,0.0,3.0,68,0.00,,,0.00,0.000000,,2013-02-18 07:01:00,
2013-02-17 23:11:00,43.0,33.0,-100.00,WSW,237,0.0,3.0,68,0.00,,,0.00,0.000000,,2013-02-18 07:11:00,
2013-02-17 23:42:00,41.0,29.0,-100.00,ESE,113,0.0,0.0,63,0.00,,,0.00,0.000000,,2013-02-18 07:42:00,
2013-02-17 23:52:00,41.0,29.0,-100.00,ESE,113,0.0,0.0,63,0.00,,,0.00,0.000000,,2013-02-18 07:52:00,